sensor_id;sensor_type;location;lat;lon;timestamp;P1;durP1;ratioP1;P2;durP2;ratioP2
33160;SDS011;19522;45.656;11.302;2022-09-09T00:06:28;9.50;;;3.40;;
33160;SDS011;19522;45.656;11.302;2022-09-09T00:09:16;4.65;;;3.28;;
33160;SDS011;19522;45.656;11.302;2022-09-09T00:11:46;8.40;;;3.42;;
33160;SDS011;19522;45.656;11.302;2022-09-09T00:17:21;6.67;;;3.70;;
33160;SDS011;19522;45.656;11.302;2022-09-09T00:24:04;7.28;;;3.30;;
33160;SDS011;19522;45.656;11.302;2022-09-09T00:31:29;8.60;;;3.67;;
33160;SDS011;19522;45.656;11.302;2022-09-09T00:34:16;8.80;;;4.10;;
33160;SDS011;19522;45.656;11.302;2022-09-09T00:36:47;6.28;;;3.17;;
33160;SDS011;19522;45.656;11.302;2022-09-09T00:39:36;7.05;;;3.38;;
33160;SDS011;19522;45.656;11.302;2022-09-09T00:44:37;8.13;;;3.83;;
33160;SDS011;19522;45.656;11.302;2022-09-09T00:52:35;7.82;;;3.63;;
33160;SDS011;19522;45.656;11.302;2022-09-09T00:55:13;5.22;;;2.85;;
33160;SDS011;19522;45.656;11.302;2022-09-09T00:57:45;8.90;;;3.75;;
33160;SDS011;19522;45.656;11.302;2022-09-09T01:05:48;7.47;;;3.38;;
33160;SDS011;19522;45.656;11.302;2022-09-09T01:17:20;5.07;;;2.72;;
33160;SDS011;19522;45.656;11.302;2022-09-09T01:19:55;6.93;;;3.03;;
33160;SDS011;19522;45.656;11.302;2022-09-09T01:25:21;4.93;;;3.50;;
33160;SDS011;19522;45.656;11.302;2022-09-09T01:27:50;6.38;;;3.20;;
33160;SDS011;19522;45.656;11.302;2022-09-09T01:30:19;5.13;;;3.28;;
33160;SDS011;19522;45.656;11.302;2022-09-09T01:32:47;8.52;;;3.22;;
33160;SDS011;19522;45.656;11.302;2022-09-09T01:38:05;5.60;;;3.38;;
33160;SDS011;19522;45.656;11.302;2022-09-09T01:40:31;8.18;;;3.08;;
33160;SDS011;19522;45.656;11.302;2022-09-09T01:42:57;6.65;;;3.08;;
33160;SDS011;19522;45.656;11.302;2022-09-09T01:45:23;6.00;;;2.90;;
33160;SDS011;19522;45.656;11.302;2022-09-09T01:47:49;6.55;;;2.78;;
33160;SDS011;19522;45.656;11.302;2022-09-09T01:50:17;5.70;;;3.72;;
33160;SDS011;19522;45.656;11.302;2022-09-09T01:52:43;6.80;;;3.15;;
33160;SDS011;19522;45.656;11.302;2022-09-09T01:55:13;4.68;;;2.67;;
33160;SDS011;19522;45.656;11.302;2022-09-09T02:00:21;5.72;;;3.00;;
33160;SDS011;19522;45.656;11.302;2022-09-09T02:05:40;5.57;;;2.83;;
33160;SDS011;19522;45.656;11.302;2022-09-09T02:08:20;5.07;;;3.25;;
33160;SDS011;19522;45.656;11.302;2022-09-09T02:13:39;8.60;;;2.78;;
33160;SDS011;19522;45.656;11.302;2022-09-09T02:19:14;7.68;;;2.90;;
33160;SDS011;19522;45.656;11.302;2022-09-09T02:21:50;13.05;;;3.88;;
33160;SDS011;19522;45.656;11.302;2022-09-09T02:24:18;7.90;;;3.30;;
33160;SDS011;19522;45.656;11.302;2022-09-09T02:26:45;7.57;;;3.15;;
33160;SDS011;19522;45.656;11.302;2022-09-09T02:29:15;8.38;;;2.70;;
33160;SDS011;19522;45.656;11.302;2022-09-09T02:31:47;7.15;;;2.92;;
33160;SDS011;19522;45.656;11.302;2022-09-09T02:34:15;8.25;;;3.30;;
33160;SDS011;19522;45.656;11.302;2022-09-09T02:36:44;8.52;;;3.03;;
33160;SDS011;19522;45.656;11.302;2022-09-09T02:39:12;7.53;;;2.50;;
33160;SDS011;19522;45.656;11.302;2022-09-09T02:41:39;7.95;;;2.95;;
33160;SDS011;19522;45.656;11.302;2022-09-09T02:44:15;4.53;;;2.75;;
33160;SDS011;19522;45.656;11.302;2022-09-09T02:46:47;4.47;;;2.72;;
33160;SDS011;19522;45.656;11.302;2022-09-09T02:49:40;8.55;;;2.88;;
33160;SDS011;19522;45.656;11.302;2022-09-09T02:52:08;4.78;;;2.63;;
33160;SDS011;19522;45.656;11.302;2022-09-09T02:54:42;5.65;;;2.80;;
33160;SDS011;19522;45.656;11.302;2022-09-09T02:57:19;5.97;;;2.70;;
33160;SDS011;19522;45.656;11.302;2022-09-09T02:59:56;4.88;;;2.50;;
33160;SDS011;19522;45.656;11.302;2022-09-09T03:02:22;7.88;;;2.83;;
33160;SDS011;19522;45.656;11.302;2022-09-09T03:04:48;7.93;;;3.10;;
33160;SDS011;19522;45.656;11.302;2022-09-09T03:07:17;7.18;;;2.63;;
33160;SDS011;19522;45.656;11.302;2022-09-09T03:09:43;5.82;;;3.15;;
33160;SDS011;19522;45.656;11.302;2022-09-09T03:12:09;6.80;;;2.90;;
33160;SDS011;19522;45.656;11.302;2022-09-09T03:14:36;6.32;;;2.63;;
33160;SDS011;19522;45.656;11.302;2022-09-09T03:17:03;6.22;;;2.80;;
33160;SDS011;19522;45.656;11.302;2022-09-09T03:19:30;4.82;;;2.80;;
33160;SDS011;19522;45.656;11.302;2022-09-09T03:21:56;4.88;;;2.83;;
33160;SDS011;19522;45.656;11.302;2022-09-09T03:24:22;8.35;;;2.88;;
33160;SDS011;19522;45.656;11.302;2022-09-09T03:26:47;6.32;;;3.55;;
33160;SDS011;19522;45.656;11.302;2022-09-09T03:29:13;4.60;;;2.60;;
33160;SDS011;19522;45.656;11.302;2022-09-09T03:31:39;4.15;;;2.85;;
33160;SDS011;19522;45.656;11.302;2022-09-09T03:34:05;7.97;;;3.00;;
33160;SDS011;19522;45.656;11.302;2022-09-09T03:36:32;6.10;;;2.90;;
33160;SDS011;19522;45.656;11.302;2022-09-09T03:38:57;3.90;;;2.65;;
33160;SDS011;19522;45.656;11.302;2022-09-09T03:41:24;4.90;;;2.65;;
33160;SDS011;19522;45.656;11.302;2022-09-09T03:43:51;7.63;;;3.08;;
33160;SDS011;19522;45.656;11.302;2022-09-09T03:46:21;5.13;;;3.08;;
33160;SDS011;19522;45.656;11.302;2022-09-09T03:48:48;10.02;;;2.70;;
33160;SDS011;19522;45.656;11.302;2022-09-09T03:51:19;7.20;;;2.72;;
33160;SDS011;19522;45.656;11.302;2022-09-09T03:53:45;6.72;;;2.88;;
33160;SDS011;19522;45.656;11.302;2022-09-09T03:56:11;5.38;;;2.67;;
33160;SDS011;19522;45.656;11.302;2022-09-09T03:58:37;4.47;;;2.60;;
33160;SDS011;19522;45.656;11.302;2022-09-09T04:01:03;11.65;;;2.70;;
33160;SDS011;19522;45.656;11.302;2022-09-09T04:03:38;5.88;;;3.10;;
33160;SDS011;19522;45.656;11.302;2022-09-09T04:06:04;6.68;;;3.33;;
33160;SDS011;19522;45.656;11.302;2022-09-09T04:08:31;8.75;;;2.83;;
33160;SDS011;19522;45.656;11.302;2022-09-09T04:10:58;7.15;;;2.65;;
33160;SDS011;19522;45.656;11.302;2022-09-09T04:13:24;9.38;;;2.55;;
33160;SDS011;19522;45.656;11.302;2022-09-09T04:15:54;4.05;;;2.72;;
33160;SDS011;19522;45.656;11.302;2022-09-09T04:18:21;5.03;;;2.67;;
33160;SDS011;19522;45.656;11.302;2022-09-09T04:20:51;8.15;;;2.97;;
33160;SDS011;19522;45.656;11.302;2022-09-09T04:23:22;6.30;;;2.80;;
33160;SDS011;19522;45.656;11.302;2022-09-09T04:25:52;5.70;;;3.00;;
33160;SDS011;19522;45.656;11.302;2022-09-09T04:28:20;7.85;;;2.92;;
33160;SDS011;19522;45.656;11.302;2022-09-09T04:30:47;7.40;;;2.83;;
33160;SDS011;19522;45.656;11.302;2022-09-09T04:33:13;5.35;;;3.28;;
33160;SDS011;19522;45.656;11.302;2022-09-09T04:35:44;4.97;;;2.72;;
33160;SDS011;19522;45.656;11.302;2022-09-09T04:38:11;6.82;;;3.10;;
33160;SDS011;19522;45.656;11.302;2022-09-09T04:40:36;5.55;;;2.70;;
33160;SDS011;19522;45.656;11.302;2022-09-09T04:43:08;6.75;;;2.50;;
33160;SDS011;19522;45.656;11.302;2022-09-09T04:45:34;12.45;;;3.20;;
33160;SDS011;19522;45.656;11.302;2022-09-09T04:48:00;10.90;;;3.83;;
33160;SDS011;19522;45.656;11.302;2022-09-09T04:50:25;6.53;;;3.03;;
33160;SDS011;19522;45.656;11.302;2022-09-09T04:52:51;4.60;;;2.60;;
33160;SDS011;19522;45.656;11.302;2022-09-09T04:55:17;14.32;;;2.95;;
33160;SDS011;19522;45.656;11.302;2022-09-09T04:57:42;7.60;;;3.17;;
33160;SDS011;19522;45.656;11.302;2022-09-09T05:00:08;8.48;;;2.90;;
33160;SDS011;19522;45.656;11.302;2022-09-09T05:02:39;6.53;;;2.67;;
33160;SDS011;19522;45.656;11.302;2022-09-09T05:05:06;4.75;;;2.70;;
33160;SDS011;19522;45.656;11.302;2022-09-09T05:07:32;7.30;;;3.13;;
33160;SDS011;19522;45.656;11.302;2022-09-09T05:09:57;6.38;;;2.63;;
33160;SDS011;19522;45.656;11.302;2022-09-09T05:12:23;5.50;;;2.92;;
33160;SDS011;19522;45.656;11.302;2022-09-09T05:14:51;5.80;;;3.00;;
33160;SDS011;19522;45.656;11.302;2022-09-09T05:17:17;7.25;;;3.20;;
33160;SDS011;19522;45.656;11.302;2022-09-09T05:19:43;4.50;;;2.63;;
33160;SDS011;19522;45.656;11.302;2022-09-09T05:22:09;4.57;;;2.80;;
33160;SDS011;19522;45.656;11.302;2022-09-09T05:24:36;7.22;;;3.03;;
33160;SDS011;19522;45.656;11.302;2022-09-09T05:27:01;4.88;;;2.33;;
33160;SDS011;19522;45.656;11.302;2022-09-09T05:29:27;6.22;;;2.75;;
33160;SDS011;19522;45.656;11.302;2022-09-09T05:31:53;6.13;;;2.72;;
33160;SDS011;19522;45.656;11.302;2022-09-09T05:34:18;6.05;;;2.78;;
33160;SDS011;19522;45.656;11.302;2022-09-09T05:36:45;5.47;;;2.78;;
33160;SDS011;19522;45.656;11.302;2022-09-09T05:39:11;6.93;;;2.83;;
33160;SDS011;19522;45.656;11.302;2022-09-09T05:41:37;3.58;;;2.42;;
33160;SDS011;19522;45.656;11.302;2022-09-09T05:44:03;6.00;;;2.78;;
33160;SDS011;19522;45.656;11.302;2022-09-09T05:46:28;4.07;;;2.85;;
33160;SDS011;19522;45.656;11.302;2022-09-09T05:48:55;8.73;;;3.28;;
33160;SDS011;19522;45.656;11.302;2022-09-09T05:51:24;7.13;;;2.92;;
33160;SDS011;19522;45.656;11.302;2022-09-09T05:53:53;6.25;;;2.90;;
33160;SDS011;19522;45.656;11.302;2022-09-09T05:56:20;6.85;;;3.10;;
33160;SDS011;19522;45.656;11.302;2022-09-09T05:58:49;7.28;;;3.15;;
33160;SDS011;19522;45.656;11.302;2022-09-09T06:01:16;4.90;;;2.70;;
33160;SDS011;19522;45.656;11.302;2022-09-09T06:03:47;5.38;;;2.75;;
33160;SDS011;19522;45.656;11.302;2022-09-09T06:06:14;8.27;;;3.05;;
33160;SDS011;19522;45.656;11.302;2022-09-09T06:08:52;4.05;;;2.80;;
33160;SDS011;19522;45.656;11.302;2022-09-09T06:13:52;6.07;;;2.72;;
33160;SDS011;19522;45.656;11.302;2022-09-09T06:16:20;8.73;;;2.92;;
33160;SDS011;19522;45.656;11.302;2022-09-09T06:18:50;4.65;;;2.80;;
33160;SDS011;19522;45.656;11.302;2022-09-09T06:21:19;6.93;;;2.90;;
33160;SDS011;19522;45.656;11.302;2022-09-09T06:23:47;5.70;;;2.95;;
33160;SDS011;19522;45.656;11.302;2022-09-09T06:26:16;5.95;;;2.85;;
33160;SDS011;19522;45.656;11.302;2022-09-09T06:28:47;8.77;;;3.20;;
33160;SDS011;19522;45.656;11.302;2022-09-09T06:31:15;9.30;;;3.38;;
33160;SDS011;19522;45.656;11.302;2022-09-09T06:33:42;3.90;;;2.80;;
33160;SDS011;19522;45.656;11.302;2022-09-09T06:36:28;8.68;;;2.78;;
33160;SDS011;19522;45.656;11.302;2022-09-09T06:38:58;2.95;;;2.53;;
33160;SDS011;19522;45.656;11.302;2022-09-09T06:41:26;7.97;;;2.97;;
33160;SDS011;19522;45.656;11.302;2022-09-09T06:43:53;4.68;;;2.53;;
33160;SDS011;19522;45.656;11.302;2022-09-09T06:46:19;5.45;;;2.92;;
33160;SDS011;19522;45.656;11.302;2022-09-09T06:48:50;5.32;;;2.70;;
33160;SDS011;19522;45.656;11.302;2022-09-09T06:51:17;6.75;;;3.17;;
33160;SDS011;19522;45.656;11.302;2022-09-09T06:53:46;5.13;;;2.47;;
33160;SDS011;19522;45.656;11.302;2022-09-09T06:56:20;4.70;;;2.67;;
33160;SDS011;19522;45.656;11.302;2022-09-09T06:58:51;4.93;;;2.72;;
33160;SDS011;19522;45.656;11.302;2022-09-09T07:01:21;6.55;;;2.90;;
33160;SDS011;19522;45.656;11.302;2022-09-09T07:03:49;8.68;;;2.65;;
33160;SDS011;19522;45.656;11.302;2022-09-09T07:06:29;9.43;;;3.10;;
33160;SDS011;19522;45.656;11.302;2022-09-09T07:08:57;4.68;;;2.33;;
33160;SDS011;19522;45.656;11.302;2022-09-09T07:11:29;4.35;;;2.72;;
33160;SDS011;19522;45.656;11.302;2022-09-09T07:13:57;5.95;;;2.45;;
33160;SDS011;19522;45.656;11.302;2022-09-09T07:16:24;5.57;;;2.75;;
33160;SDS011;19522;45.656;11.302;2022-09-09T07:18:51;10.00;;;3.08;;
33160;SDS011;19522;45.656;11.302;2022-09-09T07:21:17;4.85;;;2.67;;
33160;SDS011;19522;45.656;11.302;2022-09-09T07:23:43;6.25;;;2.60;;
33160;SDS011;19522;45.656;11.302;2022-09-09T07:28:36;7.05;;;2.72;;
33160;SDS011;19522;45.656;11.302;2022-09-09T07:31:02;7.80;;;2.60;;
33160;SDS011;19522;45.656;11.302;2022-09-09T07:33:28;9.45;;;3.28;;
33160;SDS011;19522;45.656;11.302;2022-09-09T07:36:01;4.82;;;2.63;;
33160;SDS011;19522;45.656;11.302;2022-09-09T07:38:28;5.47;;;2.83;;
33160;SDS011;19522;45.656;11.302;2022-09-09T07:41:02;6.90;;;2.38;;
33160;SDS011;19522;45.656;11.302;2022-09-09T07:43:33;5.95;;;2.85;;
33160;SDS011;19522;45.656;11.302;2022-09-09T07:45:59;3.45;;;2.30;;
33160;SDS011;19522;45.656;11.302;2022-09-09T07:48:28;5.22;;;2.60;;
33160;SDS011;19522;45.656;11.302;2022-09-09T07:51:03;8.20;;;2.67;;
33160;SDS011;19522;45.656;11.302;2022-09-09T07:53:33;6.03;;;2.72;;
33160;SDS011;19522;45.656;11.302;2022-09-09T07:56:05;7.15;;;2.40;;
33160;SDS011;19522;45.656;11.302;2022-09-09T07:58:36;5.75;;;2.80;;
33160;SDS011;19522;45.656;11.302;2022-09-09T08:01:06;6.65;;;3.08;;
33160;SDS011;19522;45.656;11.302;2022-09-09T08:06:06;5.97;;;2.95;;
33160;SDS011;19522;45.656;11.302;2022-09-09T08:08:34;4.95;;;2.28;;
33160;SDS011;19522;45.656;11.302;2022-09-09T08:11:11;10.95;;;3.15;;
33160;SDS011;19522;45.656;11.302;2022-09-09T08:13:38;4.80;;;2.63;;
33160;SDS011;19522;45.656;11.302;2022-09-09T08:16:15;4.90;;;2.75;;
33160;SDS011;19522;45.656;11.302;2022-09-09T08:18:42;3.90;;;2.90;;
33160;SDS011;19522;45.656;11.302;2022-09-09T08:21:10;6.53;;;2.90;;
33160;SDS011;19522;45.656;11.302;2022-09-09T08:23:41;7.05;;;2.70;;
33160;SDS011;19522;45.656;11.302;2022-09-09T08:26:10;9.02;;;3.35;;
33160;SDS011;19522;45.656;11.302;2022-09-09T08:28:40;6.10;;;2.78;;
33160;SDS011;19522;45.656;11.302;2022-09-09T08:31:07;5.32;;;2.25;;
33160;SDS011;19522;45.656;11.302;2022-09-09T08:36:09;6.45;;;2.45;;
33160;SDS011;19522;45.656;11.302;2022-09-09T08:38:37;6.30;;;2.85;;
33160;SDS011;19522;45.656;11.302;2022-09-09T08:43:58;8.35;;;2.92;;
33160;SDS011;19522;45.656;11.302;2022-09-09T08:58:19;5.57;;;2.60;;
33160;SDS011;19522;45.656;11.302;2022-09-09T09:00:54;5.35;;;2.30;;
33160;SDS011;19522;45.656;11.302;2022-09-09T09:12:01;6.25;;;2.35;;
33160;SDS011;19522;45.656;11.302;2022-09-09T09:14:40;6.60;;;2.20;;
33160;SDS011;19522;45.656;11.302;2022-09-09T09:17:09;5.53;;;2.33;;
33160;SDS011;19522;45.656;11.302;2022-09-09T09:19:40;5.60;;;2.40;;
33160;SDS011;19522;45.656;11.302;2022-09-09T09:24:53;4.85;;;2.35;;
33160;SDS011;19522;45.656;11.302;2022-09-09T09:31:04;6.22;;;2.45;;
33160;SDS011;19522;45.656;11.302;2022-09-09T09:36:13;6.90;;;3.10;;
33160;SDS011;19522;45.656;11.302;2022-09-09T09:38:55;6.63;;;2.45;;
33160;SDS011;19522;45.656;11.302;2022-09-09T09:41:29;6.22;;;2.70;;
33160;SDS011;19522;45.656;11.302;2022-09-09T09:44:03;6.40;;;2.63;;
33160;SDS011;19522;45.656;11.302;2022-09-09T09:46:30;6.25;;;2.40;;
33160;SDS011;19522;45.656;11.302;2022-09-09T09:48:57;4.90;;;2.33;;
33160;SDS011;19522;45.656;11.302;2022-09-09T09:51:25;6.38;;;2.70;;
33160;SDS011;19522;45.656;11.302;2022-09-09T09:53:51;5.25;;;2.70;;
33160;SDS011;19522;45.656;11.302;2022-09-09T09:56:26;6.80;;;2.70;;
33160;SDS011;19522;45.656;11.302;2022-09-09T09:58:56;7.82;;;3.03;;
33160;SDS011;19522;45.656;11.302;2022-09-09T10:01:28;5.38;;;3.10;;
33160;SDS011;19522;45.656;11.302;2022-09-09T10:04:43;5.00;;;2.67;;
33160;SDS011;19522;45.656;11.302;2022-09-09T10:06:48;7.60;;;3.13;;
33160;SDS011;19522;45.656;11.302;2022-09-09T10:09:30;9.07;;;3.20;;
33160;SDS011;19522;45.656;11.302;2022-09-09T10:17:29;7.07;;;3.00;;
33160;SDS011;19522;45.656;11.302;2022-09-09T10:37:20;5.97;;;2.38;;
33160;SDS011;19522;45.656;11.302;2022-09-09T10:42:41;8.48;;;3.30;;
33160;SDS011;19522;45.656;11.302;2022-09-09T10:45:13;9.75;;;3.65;;
33160;SDS011;19522;45.656;11.302;2022-09-09T10:50:20;8.07;;;3.35;;
33160;SDS011;19522;45.656;11.302;2022-09-09T10:55:51;3.13;;;1.33;;
33160;SDS011;19522;45.656;11.302;2022-09-09T10:58:23;3.00;;;1.25;;
33160;SDS011;19522;45.656;11.302;2022-09-09T11:00:56;2.13;;;1.10;;
33160;SDS011;19522;45.656;11.302;2022-09-09T11:03:28;3.38;;;1.20;;
33160;SDS011;19522;45.656;11.302;2022-09-09T11:08:32;2.58;;;1.20;;
33160;SDS011;19522;45.656;11.302;2022-09-09T11:13:39;3.33;;;1.00;;
33160;SDS011;19522;45.656;11.302;2022-09-09T11:21:50;9.75;;;1.15;;
33160;SDS011;19522;45.656;11.302;2022-09-09T11:27:10;3.58;;;1.23;;
33160;SDS011;19522;45.656;11.302;2022-09-09T11:30:42;5.05;;;1.38;;
33160;SDS011;19522;45.656;11.302;2022-09-09T11:40:44;2.22;;;1.08;;
33160;SDS011;19522;45.656;11.302;2022-09-09T11:43:15;2.78;;;1.00;;
33160;SDS011;19522;45.656;11.302;2022-09-09T11:45:51;7.15;;;1.38;;
33160;SDS011;19522;45.656;11.302;2022-09-09T11:56:32;3.10;;;1.10;;
33160;SDS011;19522;45.656;11.302;2022-09-09T11:59:20;2.22;;;1.15;;
33160;SDS011;19522;45.656;11.302;2022-09-09T12:02:00;3.65;;;1.05;;
33160;SDS011;19522;45.656;11.302;2022-09-09T12:04:33;4.00;;;1.00;;
33160;SDS011;19522;45.656;11.302;2022-09-09T12:09:47;2.53;;;1.00;;
33160;SDS011;19522;45.656;11.302;2022-09-09T12:12:37;4.22;;;0.90;;
33160;SDS011;19522;45.656;11.302;2022-09-09T12:15:17;2.28;;;1.00;;
33160;SDS011;19522;45.656;11.302;2022-09-09T12:17:52;2.40;;;0.70;;
33160;SDS011;19522;45.656;11.302;2022-09-09T12:20:20;2.13;;;0.80;;
33160;SDS011;19522;45.656;11.302;2022-09-09T12:28:18;5.53;;;1.00;;
33160;SDS011;19522;45.656;11.302;2022-09-09T12:33:18;2.67;;;0.95;;
33160;SDS011;19522;45.656;11.302;2022-09-09T12:35:44;3.25;;;1.00;;
33160;SDS011;19522;45.656;11.302;2022-09-09T12:38:26;4.82;;;1.20;;
33160;SDS011;19522;45.656;11.302;2022-09-09T12:40:57;2.70;;;0.90;;
33160;SDS011;19522;45.656;11.302;2022-09-09T12:43:23;4.00;;;1.10;;
33160;SDS011;19522;45.656;11.302;2022-09-09T12:45:51;3.13;;;1.63;;
33160;SDS011;19522;45.656;11.302;2022-09-09T12:48:35;4.00;;;1.13;;
33160;SDS011;19522;45.656;11.302;2022-09-09T12:51:04;4.00;;;1.15;;
33160;SDS011;19522;45.656;11.302;2022-09-09T12:53:42;2.40;;;1.00;;
33160;SDS011;19522;45.656;11.302;2022-09-09T12:56:18;3.45;;;0.85;;
33160;SDS011;19522;45.656;11.302;2022-09-09T13:01:31;1.45;;;0.55;;
33160;SDS011;19522;45.656;11.302;2022-09-09T13:04:01;2.47;;;0.77;;
33160;SDS011;19522;45.656;11.302;2022-09-09T13:06:30;4.07;;;0.70;;
33160;SDS011;19522;45.656;11.302;2022-09-09T13:08:58;4.47;;;0.70;;
33160;SDS011;19522;45.656;11.302;2022-09-09T13:14:00;2.63;;;0.90;;
33160;SDS011;19522;45.656;11.302;2022-09-09T13:18:57;3.72;;;1.25;;
33160;SDS011;19522;45.656;11.302;2022-09-09T13:21:33;2.15;;;0.80;;
33160;SDS011;19522;45.656;11.302;2022-09-09T13:26:59;2.03;;;0.77;;
33160;SDS011;19522;45.656;11.302;2022-09-09T13:29:30;2.05;;;0.70;;
33160;SDS011;19522;45.656;11.302;2022-09-09T13:32:05;2.33;;;1.05;;
33160;SDS011;19522;45.656;11.302;2022-09-09T13:34:37;1.88;;;0.82;;
33160;SDS011;19522;45.656;11.302;2022-09-09T13:37:06;2.45;;;0.93;;
33160;SDS011;19522;45.656;11.302;2022-09-09T13:39:50;4.50;;;1.02;;
33160;SDS011;19522;45.656;11.302;2022-09-09T13:42:27;5.88;;;0.80;;
33160;SDS011;19522;45.656;11.302;2022-09-09T13:44:55;2.33;;;0.80;;
33160;SDS011;19522;45.656;11.302;2022-09-09T13:47:26;3.08;;;0.77;;
33160;SDS011;19522;45.656;11.302;2022-09-09T13:49:56;3.63;;;0.98;;
33160;SDS011;19522;45.656;11.302;2022-09-09T13:52:22;13.15;;;1.65;;
33160;SDS011;19522;45.656;11.302;2022-09-09T13:54:48;4.55;;;0.80;;
33160;SDS011;19522;45.656;11.302;2022-09-09T13:57:17;6.70;;;0.80;;
33160;SDS011;19522;45.656;11.302;2022-09-09T13:59:45;3.28;;;0.90;;
33160;SDS011;19522;45.656;11.302;2022-09-09T14:02:11;3.13;;;0.90;;
33160;SDS011;19522;45.656;11.302;2022-09-09T14:04:36;4.18;;;0.80;;
33160;SDS011;19522;45.656;11.302;2022-09-09T14:07:02;2.33;;;0.85;;
33160;SDS011;19522;45.656;11.302;2022-09-09T14:09:28;3.20;;;0.80;;
33160;SDS011;19522;45.656;11.302;2022-09-09T14:11:54;1.90;;;0.60;;
33160;SDS011;19522;45.656;11.302;2022-09-09T14:14:22;1.92;;;0.70;;
33160;SDS011;19522;45.656;11.302;2022-09-09T14:16:48;3.03;;;1.10;;
33160;SDS011;19522;45.656;11.302;2022-09-09T14:19:13;4.07;;;0.98;;
33160;SDS011;19522;45.656;11.302;2022-09-09T14:21:39;1.73;;;0.85;;
33160;SDS011;19522;45.656;11.302;2022-09-09T14:24:04;1.70;;;0.90;;
33160;SDS011;19522;45.656;11.302;2022-09-09T14:26:30;5.97;;;0.90;;
33160;SDS011;19522;45.656;11.302;2022-09-09T14:28:57;2.05;;;0.70;;
33160;SDS011;19522;45.656;11.302;2022-09-09T14:31:23;4.70;;;1.15;;
33160;SDS011;19522;45.656;11.302;2022-09-09T14:33:49;3.75;;;0.80;;
33160;SDS011;19522;45.656;11.302;2022-09-09T14:36:15;1.90;;;0.88;;
33160;SDS011;19522;45.656;11.302;2022-09-09T14:38:41;3.45;;;0.82;;
33160;SDS011;19522;45.656;11.302;2022-09-09T14:41:15;3.40;;;0.70;;
33160;SDS011;19522;45.656;11.302;2022-09-09T14:43:43;3.53;;;1.38;;
33160;SDS011;19522;45.656;11.302;2022-09-09T14:46:11;3.97;;;0.90;;
33160;SDS011;19522;45.656;11.302;2022-09-09T14:48:38;2.90;;;0.82;;
33160;SDS011;19522;45.656;11.302;2022-09-09T14:51:10;1.65;;;0.70;;
33160;SDS011;19522;45.656;11.302;2022-09-09T14:56:07;0.60;;;0.40;;
33160;SDS011;19522;45.656;11.302;2022-09-09T14:58:34;1.08;;;0.55;;
33160;SDS011;19522;45.656;11.302;2022-09-09T15:01:04;2.28;;;0.70;;
33160;SDS011;19522;45.656;11.302;2022-09-09T15:03:30;0.75;;;0.57;;
33160;SDS011;19522;45.656;11.302;2022-09-09T15:05:56;1.88;;;0.80;;
33160;SDS011;19522;45.656;11.302;2022-09-09T15:08:23;1.80;;;0.57;;
33160;SDS011;19522;45.656;11.302;2022-09-09T15:10:49;1.83;;;0.70;;
33160;SDS011;19522;45.656;11.302;2022-09-09T15:13:15;1.40;;;0.73;;
33160;SDS011;19522;45.656;11.302;2022-09-09T15:15:42;2.67;;;0.70;;
33160;SDS011;19522;45.656;11.302;2022-09-09T15:18:08;2.08;;;0.63;;
33160;SDS011;19522;45.656;11.302;2022-09-09T15:20:33;5.53;;;2.33;;
33160;SDS011;19522;45.656;11.302;2022-09-09T15:23:02;2.63;;;0.85;;
33160;SDS011;19522;45.656;11.302;2022-09-09T15:25:31;2.30;;;0.60;;
33160;SDS011;19522;45.656;11.302;2022-09-09T15:27:57;1.10;;;0.60;;
33160;SDS011;19522;45.656;11.302;2022-09-09T15:30:23;3.13;;;0.82;;
33160;SDS011;19522;45.656;11.302;2022-09-09T15:32:48;1.55;;;0.90;;
33160;SDS011;19522;45.656;11.302;2022-09-09T15:35:14;3.20;;;0.63;;
33160;SDS011;19522;45.656;11.302;2022-09-09T15:37:40;4.43;;;0.82;;
33160;SDS011;19522;45.656;11.302;2022-09-09T15:40:06;4.53;;;0.82;;
33160;SDS011;19522;45.656;11.302;2022-09-09T15:42:31;2.75;;;0.80;;
33160;SDS011;19522;45.656;11.302;2022-09-09T15:44:57;1.63;;;0.75;;
33160;SDS011;19522;45.656;11.302;2022-09-09T15:47:23;2.10;;;0.73;;
33160;SDS011;19522;45.656;11.302;2022-09-09T15:49:48;4.63;;;0.80;;
33160;SDS011;19522;45.656;11.302;2022-09-09T15:52:13;2.13;;;0.60;;
33160;SDS011;19522;45.656;11.302;2022-09-09T15:54:39;2.50;;;0.77;;
33160;SDS011;19522;45.656;11.302;2022-09-09T15:57:06;1.23;;;0.65;;
33160;SDS011;19522;45.656;11.302;2022-09-09T15:59:33;2.25;;;0.80;;
33160;SDS011;19522;45.656;11.302;2022-09-09T16:01:59;5.20;;;0.85;;
33160;SDS011;19522;45.656;11.302;2022-09-09T16:04:25;1.35;;;0.65;;
33160;SDS011;19522;45.656;11.302;2022-09-09T16:06:52;1.73;;;0.75;;
33160;SDS011;19522;45.656;11.302;2022-09-09T16:09:19;1.88;;;0.90;;
33160;SDS011;19522;45.656;11.302;2022-09-09T16:11:45;2.25;;;1.00;;
33160;SDS011;19522;45.656;11.302;2022-09-09T16:14:12;5.53;;;1.00;;
33160;SDS011;19522;45.656;11.302;2022-09-09T16:16:38;1.63;;;0.80;;
33160;SDS011;19522;45.656;11.302;2022-09-09T16:19:04;3.22;;;1.08;;
33160;SDS011;19522;45.656;11.302;2022-09-09T16:21:36;2.35;;;0.93;;
33160;SDS011;19522;45.656;11.302;2022-09-09T16:24:05;3.22;;;0.82;;
33160;SDS011;19522;45.656;11.302;2022-09-09T16:26:32;2.53;;;1.08;;
33160;SDS011;19522;45.656;11.302;2022-09-09T16:29:00;3.08;;;1.27;;
33160;SDS011;19522;45.656;11.302;2022-09-09T16:31:26;1.60;;;0.88;;
33160;SDS011;19522;45.656;11.302;2022-09-09T16:33:53;5.32;;;2.45;;
33160;SDS011;19522;45.656;11.302;2022-09-09T16:36:20;2.97;;;1.00;;
33160;SDS011;19522;45.656;11.302;2022-09-09T16:38:47;2.55;;;0.80;;
33160;SDS011;19522;45.656;11.302;2022-09-09T16:41:13;3.70;;;1.30;;
33160;SDS011;19522;45.656;11.302;2022-09-09T16:43:39;4.18;;;1.30;;
33160;SDS011;19522;45.656;11.302;2022-09-09T16:46:15;4.50;;;2.03;;
33160;SDS011;19522;45.656;11.302;2022-09-09T16:48:43;2.88;;;1.60;;
33160;SDS011;19522;45.656;11.302;2022-09-09T16:51:22;5.80;;;1.25;;
33160;SDS011;19522;45.656;11.302;2022-09-09T16:53:50;5.05;;;1.42;;
33160;SDS011;19522;45.656;11.302;2022-09-09T16:56:28;1.90;;;1.05;;
33160;SDS011;19522;45.656;11.302;2022-09-09T16:58:58;6.00;;;0.98;;
33160;SDS011;19522;45.656;11.302;2022-09-09T17:01:25;2.45;;;1.10;;
33160;SDS011;19522;45.656;11.302;2022-09-09T17:03:53;2.88;;;1.20;;
33160;SDS011;19522;45.656;11.302;2022-09-09T17:06:20;4.53;;;1.00;;
33160;SDS011;19522;45.656;11.302;2022-09-09T17:08:46;3.92;;;1.02;;
33160;SDS011;19522;45.656;11.302;2022-09-09T17:11:17;2.03;;;1.10;;
33160;SDS011;19522;45.656;11.302;2022-09-09T17:13:44;1.73;;;1.20;;
33160;SDS011;19522;45.656;11.302;2022-09-09T17:16:11;2.47;;;0.88;;
33160;SDS011;19522;45.656;11.302;2022-09-09T17:18:39;3.40;;;0.93;;
33160;SDS011;19522;45.656;11.302;2022-09-09T17:21:05;3.13;;;1.20;;
33160;SDS011;19522;45.656;11.302;2022-09-09T17:23:34;4.18;;;1.35;;
33160;SDS011;19522;45.656;11.302;2022-09-09T17:26:03;2.83;;;1.42;;
33160;SDS011;19522;45.656;11.302;2022-09-09T17:28:33;2.60;;;1.23;;
33160;SDS011;19522;45.656;11.302;2022-09-09T17:31:00;3.28;;;1.10;;
33160;SDS011;19522;45.656;11.302;2022-09-09T17:33:28;2.65;;;1.42;;
33160;SDS011;19522;45.656;11.302;2022-09-09T17:35:58;7.05;;;1.40;;
33160;SDS011;19522;45.656;11.302;2022-09-09T17:38:25;2.70;;;1.60;;
33160;SDS011;19522;45.656;11.302;2022-09-09T17:41:03;1.85;;;1.17;;
33160;SDS011;19522;45.656;11.302;2022-09-09T17:43:33;4.95;;;1.35;;
33160;SDS011;19522;45.656;11.302;2022-09-09T17:46:10;3.65;;;1.35;;
33160;SDS011;19522;45.656;11.302;2022-09-09T17:48:41;2.15;;;1.30;;
33160;SDS011;19522;45.656;11.302;2022-09-09T17:51:09;4.70;;;1.38;;